Fairfield, NJ

2:50 PM EDT on April 01, 2015 (GMT -0400)
Essex County | | Change Station
CLOSE
Current Station
Airport
Location: Caldwell,
Elevation: 174 ft
Nearby Weather Stations

Elev 174 ft 40.88 °N, 74.28 °W | Updated 57 minutes ago

Clear
Clear
44 °F
Feels Like 38 °F
N
13
Wind Variable Wind from NW
Gusts 22 mph

Today
High -- | Low -- °F
--% Chance of Precip.
Yesterday
High -- | Low -- °F
Precip. -- in
6:41 AM 7:21 PM
Waxing Gibbous, 93% visible
Pressure 30.12 in
Visibility 10.0 miles
Clouds Clear
Windchill 38 °F
Dew Point 18 °F
Humidity 35%
Rainfall 0.00 in
Snow Depth Not available.
UV 8 out of 12
Pollen 7.80 out of 12
Air Quality Not available.
Flu Activity Not available.
METAR KCDW 011753Z 31011G19KT 10SM CLR 07/M08 A3010 RMK AO2 SLP199 T00671078 10067 21006 51003

More Conditions Fewer Conditions

Pressure 30.12 in
Visibility 10.0 miles
Clouds Clear
Windchill 38 °F
Dew Point 18 °F
Humidity 35%
Rainfall 0.00 in
Snow Depth Not available.
UV 8 out of 12
Pollen 7.80 out of 12
Air Quality Not available.
Flu Activity Not available.
METAR KCDW 011753Z 31011G19KT 10SM CLR 07/M08 A3010 RMK AO2 SLP199 T00671078 10067 21006 51003

More Conditions Fewer Conditions

10-Day Weather Forecast

Almanac

Astronomy

Apr. 01, 2015 Rise Set
Actual Time
Civil Twilight
Nautical Twilight
Astronomical Twilight
Moon
Length of Visible Light
Length of Day
Tomorrow will be .
, % of the Moon is Illuminated

Today's Extremes

State Highs State Lows

Community

WunderPhotos

Upload Photos

1,810,036 photos uploaded!

WunderBlogs® & News

Nearby

Air Quality

  Air Quality AQ Index Pollutant
Not available.

Snow Depth

Station Depth Elevation

Earthquake Activity

City Distance Mag. Time & Date
Minimum magnitude displayed is 2.5.

Coastal Water Temperatures

Place Temperature

Stations

Nearby Weather Stations

Station Location Temp. Windchill Dew Point Humidity Wind Precip. Elev Updated Type